Time;durP1;ratioP1;P1;durP2;ratioP2;P2;SDS_P1;SDS_P2;PMS_P1;PMS_P2;Temp;Humidity;BMP_temperature;BMP_pressure;BME280_temperature;BME280_humidity;BME280_pressure;Samples;Min_cycle;Max_cycle;Signal;HPM_P1;HPM_P2
2022/08/18 00:01:40;;;;;;;10.97;9.87;;;24.80;76.10;;;;;;5065314;28;20965;-70
2022/08/18 00:04:08;;;;;;;10.40;9.50;;;24.80;76.20;;;;;;5066037;28;20483;-70
2022/08/18 00:06:34;;;;;;;10.43;9.30;;;24.80;75.80;;;;;;5066877;28;20457;-70
2022/08/18 00:09:02;;;;;;;10.73;9.73;;;24.80;75.60;;;;;;5054717;28;20453;-71
2022/08/18 00:11:31;;;;;;;10.83;9.80;;;24.80;75.40;;;;;;5067421;28;20240;-70
2022/08/18 00:13:57;;;;;;;10.80;9.80;;;24.80;75.30;;;;;;5067518;28;20827;-70
2022/08/18 00:16:22;;;;;;;10.93;9.83;;;24.80;75.40;;;;;;5064496;28;20483;-71
2022/08/18 00:18:48;;;;;;;12.73;10.40;;;24.80;75.20;;;;;;5060216;28;20214;-69
2022/08/18 00:21:15;;;;;;;10.87;9.87;;;24.80;75.10;;;;;;5062231;28;20587;-70
2022/08/18 00:23:41;;;;;;;10.23;9.23;;;24.80;75.20;;;;;;5068126;28;20511;-69
2022/08/18 00:26:07;;;;;;;10.50;9.50;;;24.80;75.00;;;;;;5065129;28;20518;-71
2022/08/18 00:28:32;;;;;;;11.07;10.00;;;24.80;75.00;;;;;;5077811;28;20984;-71
2022/08/18 00:30:58;;;;;;;11.43;10.37;;;24.80;75.10;;;;;;5068139;28;20222;-71
2022/08/18 00:33:24;;;;;;;12.90;9.97;;;24.70;75.60;;;;;;5059661;28;20227;-71
2022/08/18 00:35:50;;;;;;;13.33;10.90;;;24.70;75.80;;;;;;5053612;28;20234;-71
2022/08/18 00:38:16;;;;;;;11.30;10.20;;;24.60;76.10;;;;;;5051425;28;20282;-71
2022/08/18 00:40:48;;;;;;;10.17;9.37;;;24.60;76.50;;;;;;5049246;28;20721;-70
2022/08/18 00:43:39;;;;;;;11.83;10.53;;;24.50;76.80;;;;;;5059925;28;20243;-71
2022/08/18 00:46:10;;;;;;;10.90;9.80;;;24.50;77.00;;;;;;5076037;28;20469;-71
2022/08/18 00:48:36;;;;;;;10.60;9.50;;;24.50;76.30;;;;;;5069172;28;20501;-71
2022/08/18 00:51:10;;;;;;;10.87;9.47;;;24.60;76.70;;;;;;5064787;28;20979;-72
2022/08/18 00:53:46;;;;;;;11.43;10.33;;;24.60;76.50;;;;;;5043904;28;20231;-71
2022/08/18 00:56:17;;;;;;;11.87;10.67;;;24.50;76.50;;;;;;5064881;28;20468;-71
2022/08/18 00:58:49;;;;;;;12.60;11.40;;;24.50;76.70;;;;;;5050166;28;20532;-71
2022/08/18 01:01:18;;;;;;;12.43;10.40;;;24.50;76.70;;;;;;5069137;28;20465;-71
2022/08/18 01:03:51;;;;;;;12.37;11.17;;;24.50;76.10;;;;;;5051940;28;20464;-71
2022/08/18 01:06:27;;;;;;;11.13;10.13;;;24.50;75.90;;;;;;5071010;28;20444;-72
2022/08/18 01:08:54;;;;;;;11.57;10.57;;;24.50;76.30;;;;;;5078260;28;20523;-71
2022/08/18 01:11:20;;;;;;;11.87;10.60;;;24.50;76.40;;;;;;5090209;28;20467;-72
2022/08/18 01:13:46;;;;;;;11.40;10.30;;;24.50;76.10;;;;;;5067465;28;20461;-71
2022/08/18 01:21:52;;;;;;;11.27;10.17;;;24.50;76.60;;;;;;5072454;28;20448;-71
2022/08/18 01:27:16;;;;;;;10.67;9.43;;;24.40;76.50;;;;;;5063369;28;20480;-71
2022/08/18 01:29:47;;;;;;;10.57;9.57;;;24.40;76.20;;;;;;5069008;28;20935;-71
2022/08/18 01:32:19;;;;;;;11.97;10.87;;;24.40;76.80;;;;;;5066761;28;20445;-71
2022/08/18 01:34:50;;;;;;;11.03;9.93;;;24.40;76.80;;;;;;5068871;28;20457;-71
2022/08/18 01:37:19;;;;;;;11.30;10.20;;;24.40;76.90;;;;;;5066731;27;20443;-71
2022/08/18 01:39:45;;;;;;;11.87;10.33;;;24.40;77.20;;;;;;5088636;28;20441;-71
2022/08/18 01:42:15;;;;;;;11.50;10.30;;;24.40;77.20;;;;;;5054673;28;20449;-71
2022/08/18 01:44:46;;;;;;;10.93;9.83;;;24.40;77.10;;;;;;5055370;28;20447;-70
2022/08/18 01:47:13;;;;;;;10.20;9.27;;;24.40;77.20;;;;;;5089508;27;20999;-71
2022/08/18 01:49:41;;;;;;;11.17;10.07;;;24.30;77.40;;;;;;5064044;28;20443;-71
2022/08/18 01:52:08;;;;;;;12.83;10.10;;;24.30;77.80;;;;;;5051110;28;20477;-71
2022/08/18 01:54:34;;;;;;;12.10;10.90;;;24.20;77.70;;;;;;5071381;28;20474;-71
2022/08/18 01:57:00;;;;;;;11.23;10.23;;;24.20;77.70;;;;;;5053012;28;20952;-71
2022/08/18 01:59:26;;;;;;;13.40;11.40;;;24.10;77.80;;;;;;5052345;28;20235;-72
2022/08/18 02:01:54;;;;;;;14.70;9.87;;;24.20;77.90;;;;;;5053539;28;20533;-69
2022/08/18 02:04:26;;;;;;;11.00;10.00;;;24.20;77.60;;;;;;5051539;28;20230;-71
2022/08/18 02:06:52;;;;;;;10.80;9.80;;;24.20;77.50;;;;;;5071228;28;20475;-71
2022/08/18 02:09:17;;;;;;;12.00;10.87;;;24.20;77.50;;;;;;5071454;28;20440;-70
2022/08/18 02:11:43;;;;;;;10.87;9.83;;;24.20;77.80;;;;;;5070686;28;20226;-71
2022/08/18 02:14:09;;;;;;;10.60;9.60;;;24.10;77.90;;;;;;5065957;28;20289;-72
2022/08/18 02:16:35;;;;;;;10.43;9.53;;;24.10;77.90;;;;;;5070352;28;20218;-71
2022/08/18 02:19:00;;;;;;;11.10;10.10;;;24.10;78.10;;;;;;5072479;28;20205;-72
2022/08/18 02:21:26;;;;;;;10.60;9.60;;;24.00;77.90;;;;;;5052403;28;20679;-70
2022/08/18 02:23:52;;;;;;;11.20;10.20;;;24.00;78.00;;;;;;5050863;28;20464;-71
2022/08/18 02:26:18;;;;;;;10.83;9.87;;;24.00;78.50;;;;;;5059322;28;20210;-71
2022/08/18 02:28:44;;;;;;;10.60;9.60;;;23.90;78.60;;;;;;5066345;28;20203;-71
2022/08/18 02:31:14;;;;;;;10.17;9.27;;;23.90;78.70;;;;;;5050437;28;20305;-71
2022/08/18 02:33:41;;;;;;;10.53;9.53;;;23.90;78.40;;;;;;5050919;28;20829;-71
2022/08/18 02:36:07;;;;;;;10.10;9.13;;;23.90;78.50;;;;;;5053324;28;20448;-71
2022/08/18 02:38:33;;;;;;;9.97;8.97;;;23.80;78.80;;;;;;5050141;28;20445;-71
2022/08/18 02:41:02;;;;;;;11.00;9.17;;;23.90;78.80;;;;;;5072283;28;20453;-72
2022/08/18 02:43:28;;;;;;;9.33;8.43;;;23.80;78.90;;;;;;5067692;28;20985;-71
2022/08/18 02:45:54;;;;;;;10.13;9.23;;;23.80;79.20;;;;;;5070989;28;20481;-71
2022/08/18 02:48:36;;;;;;;10.70;9.60;;;23.80;79.70;;;;;;5070063;28;20483;-71
2022/08/18 02:51:04;;;;;;;11.33;9.20;;;23.70;79.50;;;;;;5063410;28;20298;-71
2022/08/18 02:53:31;;;;;;;10.30;9.30;;;23.70;79.60;;;;;;5056470;28;20465;-71
2022/08/18 02:58:53;;;;;;;9.90;9.00;;;23.60;80.00;;;;;;5068676;28;20464;-71
2022/08/18 03:01:21;;;;;;;9.57;8.67;;;23.60;79.80;;;;;;5084132;28;20527;-71
2022/08/18 03:03:48;;;;;;;9.47;8.67;;;23.60;79.80;;;;;;5087996;28;20453;-70
2022/08/18 03:06:16;;;;;;;9.00;8.03;;;23.60;79.90;;;;;;5085534;28;20461;-71
2022/08/18 03:08:47;;;;;;;9.17;8.37;;;23.60;80.10;;;;;;5043062;28;20461;-71
2022/08/18 03:11:23;;;;;;;8.53;7.67;;;23.50;80.30;;;;;;5062739;28;20473;-71
2022/08/18 03:13:50;;;;;;;9.23;8.33;;;23.50;80.20;;;;;;5052764;28;20486;-71
2022/08/18 03:16:17;;;;;;;9.37;8.57;;;23.50;80.30;;;;;;5068799;28;20453;-71
2022/08/18 03:18:45;;;;;;;9.17;8.13;;;23.50;80.80;;;;;;5065440;28;20458;-71
2022/08/18 03:21:18;;;;;;;9.00;8.20;;;23.40;80.70;;;;;;5068229;28;20456;-70
2022/08/18 03:23:44;;;;;;;8.83;7.90;;;23.40;80.80;;;;;;5045921;28;20476;-71
2022/08/18 03:26:13;;;;;;;8.90;8.07;;;23.40;80.90;;;;;;5069820;28;20449;-71
2022/08/18 03:28:41;;;;;;;8.70;7.80;;;23.40;80.80;;;;;;5066204;28;20212;-71
2022/08/18 03:31:08;;;;;;;8.87;8.00;;;23.30;80.80;;;;;;5057642;28;20565;-71
2022/08/18 03:33:34;;;;;;;9.00;8.20;;;23.30;81.70;;;;;;5033160;28;20457;-71
2022/08/18 03:36:11;;;;;;;9.50;8.57;;;23.40;80.70;;;;;;5063477;28;21129;-71
2022/08/18 03:38:41;;;;;;;9.40;8.23;;;23.40;81.30;;;;;;5063491;28;20963;-72
2022/08/18 03:41:09;;;;;;;9.33;8.23;;;23.40;80.80;;;;;;5068604;28;20459;-71
2022/08/18 03:43:35;;;;;;;10.23;7.87;;;23.40;81.30;;;;;;5064669;28;20450;-70
2022/08/18 03:46:03;;;;;;;11.03;9.93;;;23.40;81.50;;;;;;5055980;28;20825;-71
2022/08/18 03:48:30;;;;;;;9.73;8.73;;;23.40;82.00;;;;;;5066229;28;20230;-71
2022/08/18 03:51:03;;;;;;;9.60;8.70;;;23.40;82.10;;;;;;5069407;28;20527;-71
2022/08/18 03:53:28;;;;;;;9.33;8.30;;;23.40;82.70;;;;;;5067207;28;20485;-71
2022/08/18 03:55:54;;;;;;;9.73;8.83;;;23.30;82.70;;;;;;5071059;28;20477;-70
2022/08/18 03:58:20;;;;;;;13.57;9.10;;;23.30;83.20;;;;;;5053894;28;20230;-71
2022/08/18 04:00:46;;;;;;;10.13;9.10;;;23.30;83.60;;;;;;5061889;28;20309;-71
2022/08/18 04:03:11;;;;;;;11.00;9.63;;;23.30;83.20;;;;;;5047467;28;20225;-70
2022/08/18 04:05:40;;;;;;;9.83;8.83;;;23.30;83.60;;;;;;5051724;28;20232;-71
2022/08/18 04:08:06;;;;;;;11.30;10.20;;;23.30;83.60;;;;;;5069119;28;20226;-70
2022/08/18 04:10:34;;;;;;;10.53;9.40;;;23.30;83.70;;;;;;5072894;28;20475;-71
2022/08/18 04:13:04;;;;;;;11.63;10.30;;;23.30;83.60;;;;;;5087668;27;20246;-70
2022/08/18 04:15:30;;;;;;;13.90;10.33;;;23.30;83.20;;;;;;5065027;28;20449;-70
2022/08/18 04:18:03;;;;;;;9.67;8.67;;;23.30;83.10;;;;;;5066288;28;20466;-70
2022/08/18 04:20:31;;;;;;;9.83;8.87;;;23.30;82.90;;;;;;5065052;28;20544;-70
2022/08/18 04:22:57;;;;;;;9.63;8.63;;;23.30;82.20;;;;;;5066530;28;20465;-71
2022/08/18 04:25:24;;;;;;;9.10;8.20;;;23.30;82.20;;;;;;5048947;28;20457;-71
2022/08/18 04:27:50;;;;;;;10.20;9.20;;;23.30;82.30;;;;;;5075825;28;20948;-71
2022/08/18 04:30:17;;;;;;;10.40;9.33;;;23.30;83.00;;;;;;5038187;28;22050;-71
2022/08/18 04:32:42;;;;;;;9.37;8.43;;;23.30;82.80;;;;;;5066069;28;20255;-70
2022/08/18 04:35:08;;;;;;;12.57;8.77;;;23.20;83.40;;;;;;5076105;28;20457;-71
2022/08/18 04:37:36;;;;;;;12.53;9.30;;;23.30;83.50;;;;;;5068042;28;20245;-71
2022/08/18 04:40:04;;;;;;;9.87;8.93;;;23.20;83.80;;;;;;5067931;28;20222;-70
2022/08/18 04:42:29;;;;;;;10.40;9.37;;;23.20;83.50;;;;;;5068737;28;21077;-71
2022/08/18 04:44:56;;;;;;;10.30;9.30;;;23.10;84.30;;;;;;5075014;28;20480;-71
2022/08/18 04:47:22;;;;;;;10.13;9.20;;;23.00;84.00;;;;;;5066780;28;20218;-71
2022/08/18 04:49:49;;;;;;;9.33;8.17;;;23.10;83.60;;;;;;5066277;28;20452;-72
2022/08/18 04:55:01;;;;;;;9.73;8.73;;;23.10;83.20;;;;;;5067668;28;20539;-71
2022/08/18 04:57:27;;;;;;;10.53;8.67;;;23.10;83.10;;;;;;5068446;28;20455;-71
2022/08/18 04:59:53;;;;;;;10.60;9.50;;;23.10;82.90;;;;;;5066940;28;20453;-70
2022/08/18 05:02:20;;;;;;;11.00;9.90;;;23.10;83.30;;;;;;5069213;27;20454;-70
2022/08/18 05:04:46;;;;;;;11.17;9.90;;;23.10;82.70;;;;;;5045936;28;20234;-70
2022/08/18 05:07:15;;;;;;;9.60;8.60;;;23.10;83.40;;;;;;5067163;28;20469;-71
2022/08/18 05:09:41;;;;;;;9.70;8.70;;;23.10;83.40;;;;;;5061127;28;20264;-71
2022/08/18 05:12:11;;;;;;;9.53;8.73;;;23.10;82.90;;;;;;5069133;28;20477;-71
2022/08/18 05:14:38;;;;;;;9.60;8.60;;;23.00;83.50;;;;;;5065180;28;20457;-71
2022/08/18 05:17:04;;;;;;;10.17;9.27;;;23.10;83.50;;;;;;5067875;28;20446;-71
2022/08/18 05:19:30;;;;;;;9.47;8.57;;;23.10;83.80;;;;;;5068172;28;20860;-71
2022/08/18 05:21:57;;;;;;;9.80;8.87;;;23.00;84.10;;;;;;5069265;28;20215;-68
2022/08/18 05:24:25;;;;;;;10.07;8.50;;;23.00;83.40;;;;;;5066655;28;20452;-68
2022/08/18 05:26:51;;;;;;;11.33;8.80;;;23.00;83.20;;;;;;5065114;28;20450;-68
2022/08/18 05:29:20;;;;;;;11.33;9.87;;;23.10;83.30;;;;;;5044099;28;20459;-70
2022/08/18 05:31:48;;;;;;;10.60;8.73;;;23.00;82.70;;;;;;5027844;28;20473;-68
2022/08/18 05:34:15;;;;;;;9.37;8.47;;;23.10;82.80;;;;;;5063441;28;21071;-67
2022/08/18 05:36:52;;;;;;;10.30;9.30;;;23.10;82.40;;;;;;5060473;28;20602;-68
2022/08/18 05:39:18;;;;;;;9.27;8.37;;;23.10;82.30;;;;;;5062683;28;20444;-72
2022/08/18 05:41:47;;;;;;;9.53;8.67;;;23.10;82.90;;;;;;5059118;28;20466;-71
2022/08/18 05:44:17;;;;;;;9.87;8.87;;;23.10;83.20;;;;;;5059769;28;20306;-71
2022/08/18 05:47:11;;;;;;;10.10;8.87;;;23.00;83.60;;;;;;5062078;28;20449;-71
2022/08/18 05:49:38;;;;;;;10.40;9.40;;;23.10;84.40;;;;;;5051840;28;20453;-71
2022/08/18 05:52:11;;;;;;;10.10;8.37;;;23.00;82.50;;;;;;5067766;28;20469;-70
2022/08/18 05:58:04;;;;;;;9.67;8.77;;;23.10;82.70;;;;;;5067451;28;20486;-71
2022/08/18 06:00:30;;;;;;;10.53;9.40;;;23.10;82.00;;;;;;5077950;28;20457;-71
2022/08/18 06:03:26;;;;;;;9.60;8.70;;;23.10;82.20;;;;;;5070196;28;20457;-71
2022/08/18 06:05:56;;;;;;;10.37;9.20;;;23.10;82.90;;;;;;5048976;28;21084;-71
2022/08/18 06:08:33;;;;;;;9.97;8.87;;;23.10;82.50;;;;;;5066315;28;20450;-71
2022/08/18 06:10:59;;;;;;;9.90;8.90;;;23.10;83.10;;;;;;5044954;28;20468;-71
2022/08/18 06:13:25;;;;;;;8.63;7.83;;;23.10;82.90;;;;;;5069557;28;20835;-71
2022/08/18 06:15:55;;;;;;;10.60;9.50;;;23.10;83.80;;;;;;5065510;28;20211;-70
2022/08/18 06:18:48;;;;;;;10.77;9.67;;;23.10;83.10;;;;;;5070099;28;20457;-72
2022/08/18 06:21:52;;;;;;;10.40;8.90;;;23.10;83.30;;;;;;5068043;28;20498;-71
2022/08/18 06:24:48;;;;;;;8.97;8.17;;;23.10;83.70;;;;;;5067623;28;20461;-71
2022/08/18 06:27:34;;;;;;;10.00;8.50;;;23.10;83.20;;;;;;5082517;28;21017;-71
2022/08/18 06:30:21;;;;;;;10.97;9.97;;;23.10;85.20;;;;;;5065620;28;20462;-71
2022/08/18 06:32:52;;;;;;;10.43;9.43;;;23.10;86.20;;;;;;5052617;28;20449;-72
2022/08/18 06:35:21;;;;;;;10.63;9.60;;;23.10;86.60;;;;;;5068032;28;20433;-71
2022/08/18 06:40:46;;;;;;;12.07;10.20;;;23.20;87.90;;;;;;5067008;28;20461;-71
2022/08/18 06:43:18;;;;;;;11.27;10.20;;;23.10;88.60;;;;;;5048846;28;20454;-71
2022/08/18 06:45:50;;;;;;;10.70;9.70;;;23.20;89.00;;;;;;5068306;28;20972;-71
2022/08/18 06:48:55;;;;;;;11.00;9.90;;;23.10;90.50;;;;;;5048112;28;20486;-71
2022/08/18 06:51:26;;;;;;;12.43;10.67;;;23.10;90.60;;;;;;5065152;28;20492;-71
2022/08/18 06:54:02;;;;;;;11.70;10.60;;;23.10;91.00;;;;;;5064147;28;20549;-71
2022/08/18 06:56:39;;;;;;;12.97;11.60;;;23.10;90.90;;;;;;5061862;28;20446;-71
2022/08/18 06:59:23;;;;;;;14.77;12.30;;;23.10;91.00;;;;;;5079938;28;20477;-71
2022/08/18 07:02:03;;;;;;;14.60;12.37;;;23.10;91.70;;;;;;5066409;28;20445;-71
2022/08/18 07:04:57;;;;;;;15.10;11.57;;;23.10;91.40;;;;;;5061646;28;20459;-70
2022/08/18 07:07:35;;;;;;;11.20;10.00;;;23.10;91.50;;;;;;5063384;28;20469;-71
2022/08/18 07:10:03;;;;;;;13.47;11.97;;;23.00;91.50;;;;;;5064463;28;20460;-71
2022/08/18 07:12:29;;;;;;;13.33;11.93;;;23.10;92.00;;;;;;5049412;28;20462;-71
2022/08/18 07:15:01;;;;;;;14.90;12.07;;;23.00;92.20;;;;;;5067256;28;20504;-71
2022/08/18 07:17:31;;;;;;;12.17;10.87;;;23.00;92.10;;;;;;5060470;28;20223;-71
2022/08/18 07:20:06;;;;;;;13.33;11.93;;;23.00;92.40;;;;;;5049712;28;20468;-72
2022/08/18 07:22:50;;;;;;;14.07;11.97;;;23.00;92.30;;;;;;5064589;28;20472;-71
2022/08/18 07:25:26;;;;;;;13.27;11.30;;;23.10;92.40;;;;;;5060221;28;20461;-71
2022/08/18 07:27:55;;;;;;;14.70;11.87;;;23.00;92.20;;;;;;5061014;28;20465;-71
2022/08/18 07:30:21;;;;;;;13.60;12.20;;;23.00;92.10;;;;;;5050862;28;20461;-71
2022/08/18 07:32:55;;;;;;;14.90;11.63;;;23.00;92.10;;;;;;5047977;28;21022;-72
2022/08/18 07:35:31;;;;;;;12.40;11.20;;;23.00;92.20;;;;;;5057967;28;20219;-72
2022/08/18 07:38:03;;;;;;;11.90;10.80;;;23.00;91.80;;;;;;5066888;28;20810;-71
2022/08/18 07:40:41;;;;;;;14.40;10.87;;;23.00;92.10;;;;;;5049919;28;20457;-71
2022/08/18 07:43:20;;;;;;;11.27;10.10;;;23.00;91.90;;;;;;5057544;28;20453;-71
2022/08/18 07:45:46;;;;;;;11.87;10.77;;;23.00;92.10;;;;;;5075252;28;20449;-70
2022/08/18 07:48:14;;;;;;;11.70;10.50;;;23.00;91.80;;;;;;5047270;28;20469;-71
2022/08/18 07:50:56;;;;;;;11.17;10.07;;;23.00;91.50;;;;;;5064051;28;20457;-71
2022/08/18 07:53:46;;;;;;;11.87;10.20;;;23.00;91.80;;;;;;5062025;28;20452;-72
2022/08/18 07:56:22;;;;;;;11.73;10.53;;;23.00;91.60;;;;;;5060353;28;21079;-71
2022/08/18 07:59:29;;;;;;;15.90;9.77;;;23.00;91.80;;;;;;5057767;28;20455;-72
2022/08/18 08:02:21;;;;;;;11.50;10.30;;;23.00;91.40;;;;;;5044635;28;20486;-70
2022/08/18 08:05:14;;;;;;;10.13;8.87;;;23.00;91.60;;;;;;5055907;28;20468;-71
2022/08/18 08:07:44;;;;;;;10.40;9.27;;;23.00;91.20;;;;;;5064642;28;20437;-71
2022/08/18 08:10:28;;;;;;;11.87;10.67;;;23.00;91.50;;;;;;5053093;28;21033;-71
2022/08/18 08:13:03;;;;;;;18.23;11.83;;;23.00;91.40;;;;;;5059577;28;20438;-72
2022/08/18 08:15:44;;;;;;;12.00;10.80;;;23.10;91.50;;;;;;5063320;28;20485;-71
2022/08/18 08:18:13;;;;;;;14.13;10.67;;;23.10;91.00;;;;;;5040833;28;20506;-70
2022/08/18 08:20:52;;;;;;;12.47;11.17;;;23.10;91.40;;;;;;5050848;28;20444;-71
2022/08/18 08:23:45;;;;;;;15.80;11.07;;;23.10;91.00;;;;;;5046302;28;20463;-71
2022/08/18 08:26:28;;;;;;;11.40;10.30;;;23.20;91.50;;;;;;5058386;28;20490;-71
2022/08/18 08:29:03;;;;;;;12.47;10.97;;;23.20;91.20;;;;;;5062180;28;20454;-72
2022/08/18 08:31:53;;;;;;;10.57;9.53;;;23.20;91.50;;;;;;5055648;28;20548;-71
2022/08/18 08:34:27;;;;;;;11.27;10.13;;;23.20;91.40;;;;;;5078353;28;20469;-71
2022/08/18 08:37:01;;;;;;;11.67;10.57;;;23.20;91.20;;;;;;5060863;28;20462;-72
2022/08/18 08:39:40;;;;;;;10.93;9.83;;;23.20;91.70;;;;;;5048649;28;20449;-71
2022/08/18 08:42:22;;;;;;;12.73;11.30;;;23.20;91.30;;;;;;5049517;28;20506;-71
2022/08/18 08:44:53;;;;;;;11.73;10.07;;;23.20;91.40;;;;;;5050330;28;20987;-70
2022/08/18 08:47:31;;;;;;;10.70;9.60;;;23.20;91.10;;;;;;5053885;28;20441;-71
2022/08/18 08:50:01;;;;;;;11.27;10.13;;;23.20;91.20;;;;;;5066083;28;20449;-70
2022/08/18 08:53:11;;;;;;;10.87;9.70;;;23.30;91.30;;;;;;5065006;28;20445;-71
2022/08/18 08:55:48;;;;;;;11.00;10.00;;;23.30;90.90;;;;;;5061147;28;20515;-71
2022/08/18 08:58:47;;;;;;;10.63;9.63;;;23.30;90.90;;;;;;5060547;28;20456;-71
2022/08/18 09:01:25;;;;;;;10.20;9.20;;;23.30;90.90;;;;;;5049370;28;20473;-71
2022/08/18 09:04:15;;;;;;;10.70;9.60;;;23.30;90.70;;;;;;5058725;28;20453;-71
2022/08/18 09:06:50;;;;;;;9.43;8.60;;;23.40;90.80;;;;;;5046124;28;20441;-71
2022/08/18 09:09:27;;;;;;;10.00;9.10;;;23.40;90.90;;;;;;5065098;28;20468;-72
2022/08/18 09:12:15;;;;;;;9.87;8.97;;;23.40;90.90;;;;;;5073032;28;20473;-72
2022/08/18 09:15:10;;;;;;;10.33;9.40;;;23.40;90.80;;;;;;5074823;28;21078;-71
2022/08/18 09:17:49;;;;;;;10.50;9.50;;;23.40;90.60;;;;;;5058631;28;20502;-71
2022/08/18 09:20:34;;;;;;;10.13;9.07;;;23.50;90.70;;;;;;5061671;28;20441;-71
2022/08/18 09:23:16;;;;;;;9.43;8.60;;;23.50;90.50;;;;;;5063206;28;20540;-72
2022/08/18 09:25:45;;;;;;;10.73;9.67;;;23.50;90.60;;;;;;5065003;28;20458;-71
2022/08/18 09:28:11;;;;;;;10.60;9.63;;;23.50;90.50;;;;;;5067674;28;20461;-71
2022/08/18 09:31:22;;;;;;;10.90;9.80;;;23.60;90.70;;;;;;5067558;28;20482;-71
2022/08/18 09:34:03;;;;;;;10.80;9.60;;;23.60;90.80;;;;;;5062864;28;20222;-71
2022/08/18 09:37:14;;;;;;;10.13;9.20;;;23.60;90.70;;;;;;5064665;28;20452;-71
2022/08/18 09:42:54;;;;;;;11.00;9.87;;;23.70;90.80;;;;;;5067620;28;20440;-71
2022/08/18 09:45:29;;;;;;;14.50;9.00;;;23.70;90.50;;;;;;5065180;28;20458;-71
2022/08/18 09:48:17;;;;;;;10.80;9.70;;;23.70;90.70;;;;;;5080680;28;20437;-71
2022/08/18 09:50:52;;;;;;;12.40;11.13;;;23.70;90.50;;;;;;5044478;28;20492;-71
2022/08/18 09:53:53;;;;;;;11.00;9.90;;;23.80;90.70;;;;;;5052240;28;21040;-71
2022/08/18 09:56:50;;;;;;;10.60;9.60;;;23.80;90.60;;;;;;5059060;28;21020;-71
2022/08/18 09:59:31;;;;;;;10.30;9.30;;;23.80;90.60;;;;;;5056355;28;20453;-72
2022/08/18 10:01:57;;;;;;;10.17;9.17;;;23.80;90.60;;;;;;5068448;28;20453;-71
2022/08/18 10:04:27;;;;;;;11.67;10.50;;;23.80;90.70;;;;;;5051571;28;20449;-72
2022/08/18 10:06:52;;;;;;;10.90;9.60;;;23.90;90.60;;;;;;5051220;28;20449;-71
2022/08/18 10:09:18;;;;;;;11.07;10.03;;;23.90;90.70;;;;;;5048364;28;20443;-71
2022/08/18 10:12:04;;;;;;;11.50;10.50;;;23.90;90.40;;;;;;5070802;28;20218;-71
2022/08/18 10:14:58;;;;;;;10.97;9.70;;;23.90;90.50;;;;;;5060571;28;20226;-72
2022/08/18 10:17:43;;;;;;;10.93;9.83;;;24.00;90.90;;;;;;5065337;28;20468;-71
2022/08/18 10:20:18;;;;;;;12.40;9.47;;;24.00;90.80;;;;;;5041489;28;20490;-71
2022/08/18 10:22:46;;;;;;;12.00;10.80;;;24.00;90.60;;;;;;5052618;28;20530;-71
2022/08/18 10:25:28;;;;;;;11.03;9.77;;;24.10;90.60;;;;;;5049492;28;20458;-71
2022/08/18 10:27:57;;;;;;;10.60;9.50;;;24.10;90.50;;;;;;5063137;28;20505;-71
2022/08/18 10:30:32;;;;;;;11.67;10.50;;;24.10;90.50;;;;;;5044700;28;20542;-71
2022/08/18 10:33:00;;;;;;;10.40;9.40;;;24.10;90.50;;;;;;5057763;28;20485;-71
2022/08/18 10:35:35;;;;;;;11.33;10.23;;;24.10;90.80;;;;;;5063537;28;21002;-71
2022/08/18 10:38:12;;;;;;;10.90;9.80;;;24.20;90.70;;;;;;5059434;28;20536;-72
2022/08/18 10:40:42;;;;;;;10.50;9.50;;;24.20;90.70;;;;;;5058708;28;20433;-72
2022/08/18 10:43:09;;;;;;;10.77;9.70;;;24.20;91.00;;;;;;5065139;28;20530;-72
2022/08/18 10:45:52;;;;;;;11.00;10.00;;;24.20;90.60;;;;;;5065650;28;20468;-71
2022/08/18 10:48:21;;;;;;;10.70;9.70;;;24.30;90.60;;;;;;5060738;28;20883;-71
2022/08/18 10:50:58;;;;;;;16.33;9.23;;;24.30;90.50;;;;;;5061218;28;20491;-71
2022/08/18 10:53:48;;;;;;;10.83;9.83;;;24.30;90.50;;;;;;5064340;28;20543;-71
2022/08/18 10:56:16;;;;;;;11.70;10.20;;;24.30;90.60;;;;;;5062163;28;20454;-71
2022/08/18 10:59:22;;;;;;;10.60;9.50;;;24.40;90.60;;;;;;5039435;28;20464;-71
2022/08/18 11:01:58;;;;;;;9.77;8.77;;;24.50;90.70;;;;;;5049323;28;20492;-72
2022/08/18 11:04:24;;;;;;;10.07;9.17;;;24.50;90.40;;;;;;5055045;28;20455;-71
2022/08/18 11:07:03;;;;;;;10.13;9.13;;;24.50;90.40;;;;;;5064906;28;20453;-70
2022/08/18 11:09:30;;;;;;;10.93;9.83;;;24.50;90.50;;;;;;5043191;28;20292;-71
2022/08/18 11:11:59;;;;;;;12.67;11.37;;;24.60;90.50;;;;;;5065754;28;20534;-71
2022/08/18 11:14:47;;;;;;;11.67;10.57;;;24.60;90.30;;;;;;5061579;28;20462;-72
2022/08/18 11:17:19;;;;;;;12.10;11.00;;;24.70;90.20;;;;;;5066018;28;20488;-71
2022/08/18 11:19:45;;;;;;;11.60;9.60;;;24.70;90.20;;;;;;5060572;28;20454;-71
2022/08/18 11:22:29;;;;;;;10.87;9.90;;;24.80;90.40;;;;;;5061824;28;20833;-71
2022/08/18 11:24:55;;;;;;;10.97;9.87;;;24.80;90.60;;;;;;5064010;28;20226;-71
2022/08/18 11:27:24;;;;;;;14.60;11.47;;;24.90;90.70;;;;;;5062449;28;20445;-71
2022/08/18 11:29:51;;;;;;;11.70;10.60;;;24.90;90.90;;;;;;5049370;28;20231;-71
2022/08/18 11:32:31;;;;;;;11.90;10.40;;;25.00;91.00;;;;;;5047977;28;20477;-70
2022/08/18 11:34:56;;;;;;;12.10;10.90;;;25.00;90.20;;;;;;5059184;28;20466;-71
2022/08/18 11:37:40;;;;;;;11.23;9.70;;;25.00;90.50;;;;;;5047620;28;21643;-71
2022/08/18 11:40:24;;;;;;;11.57;10.13;;;25.10;90.60;;;;;;5059207;28;20227;-72
2022/08/18 11:43:00;;;;;;;12.37;11.10;;;25.10;90.30;;;;;;5042848;28;20529;-71
2022/08/18 11:45:32;;;;;;;11.40;10.23;;;25.20;90.60;;;;;;5060313;28;20442;-68
2022/08/18 11:48:08;;;;;;;11.93;10.47;;;25.40;90.60;;;;;;5068496;28;20460;-69
2022/08/18 11:50:55;;;;;;;10.37;8.97;;;25.50;89.90;;;;;;5069471;28;20476;-71
2022/08/18 11:53:31;;;;;;;11.40;10.30;;;25.50;89.50;;;;;;5066352;28;20502;-70
2022/08/18 11:56:12;;;;;;;11.40;10.40;;;25.50;88.70;;;;;;5064138;28;20492;-72
2022/08/18 11:58:52;;;;;;;10.00;8.90;;;25.60;88.80;;;;;;5048066;28;20453;-71
2022/08/18 12:01:43;;;;;;;11.30;10.20;;;25.70;88.90;;;;;;5064105;28;20937;-70
2022/08/18 12:04:19;;;;;;;10.47;9.37;;;25.80;88.40;;;;;;5056282;28;20449;-71
2022/08/18 12:06:54;;;;;;;9.80;9.00;;;25.80;87.50;;;;;;5058745;28;20592;-71
2022/08/18 12:09:39;;;;;;;11.60;10.50;;;25.80;87.70;;;;;;5059107;28;21065;-71
2022/08/18 12:12:17;;;;;;;10.20;9.20;;;26.00;87.90;;;;;;5085500;28;20491;-71
2022/08/18 12:15:01;;;;;;;11.43;10.17;;;26.10;87.50;;;;;;5061296;28;20463;-71
2022/08/18 12:17:28;;;;;;;10.20;9.13;;;26.20;86.80;;;;;;5056089;28;20470;-71
2022/08/18 12:19:56;;;;;;;10.80;9.70;;;26.20;86.10;;;;;;5066585;28;20471;-70
2022/08/18 12:22:26;;;;;;;11.10;10.10;;;26.30;86.10;;;;;;5062474;28;20459;-71
2022/08/18 12:24:52;;;;;;;10.70;9.70;;;26.30;85.30;;;;;;5042872;28;20549;-71
2022/08/18 12:27:21;;;;;;;11.67;10.57;;;26.30;85.00;;;;;;5051606;28;20422;-71
2022/08/18 12:29:47;;;;;;;13.20;10.43;;;26.30;84.90;;;;;;5071954;28;20527;-72
2022/08/18 12:32:13;;;;;;;10.17;9.03;;;26.30;84.60;;;;;;5065033;28;20475;-72
2022/08/18 12:34:38;;;;;;;11.10;9.67;;;26.30;84.00;;;;;;5069043;28;20643;-70
2022/08/18 12:37:09;;;;;;;11.97;10.87;;;26.20;84.70;;;;;;5051387;28;20735;-71
2022/08/18 12:39:35;;;;;;;11.60;10.00;;;26.30;84.60;;;;;;5068500;28;20257;-70
2022/08/18 12:42:01;;;;;;;11.70;10.20;;;26.40;84.40;;;;;;5067985;28;21006;-70
2022/08/18 12:44:27;;;;;;;11.33;10.33;;;26.30;83.80;;;;;;5051593;28;20460;-71
2022/08/18 12:46:54;;;;;;;10.80;9.87;;;26.40;83.40;;;;;;5051818;28;20212;-71
2022/08/18 12:49:22;;;;;;;10.97;9.90;;;26.50;83.00;;;;;;5068107;28;20354;-71
2022/08/18 12:51:49;;;;;;;9.83;8.93;;;26.60;83.00;;;;;;5065511;28;20477;-71
2022/08/18 12:54:16;;;;;;;10.60;9.50;;;26.60;82.40;;;;;;5063533;28;20462;-71
2022/08/18 12:56:42;;;;;;;10.67;9.67;;;26.70;82.60;;;;;;5063805;28;20446;-72
2022/08/18 12:59:09;;;;;;;10.23;9.33;;;26.70;82.40;;;;;;5062360;28;20461;-72
2022/08/18 13:01:37;;;;;;;11.00;9.97;;;26.70;82.00;;;;;;5067784;28;20546;-71
2022/08/18 13:04:04;;;;;;;9.97;9.07;;;26.80;81.60;;;;;;5071516;28;20470;-71
2022/08/18 13:06:33;;;;;;;10.17;9.27;;;26.80;81.00;;;;;;5072815;28;20460;-71
2022/08/18 13:08:59;;;;;;;10.90;9.90;;;26.80;80.80;;;;;;5071412;28;20797;-71
2022/08/18 13:11:24;;;;;;;12.60;10.33;;;26.80;80.30;;;;;;5072023;28;20550;-71
2022/08/18 13:13:52;;;;;;;9.40;8.60;;;26.80;79.40;;;;;;5068217;28;20255;-70
2022/08/18 13:16:18;;;;;;;10.20;9.20;;;26.80;79.60;;;;;;5054686;28;20224;-71
2022/08/18 13:18:44;;;;;;;9.80;8.80;;;26.80;79.30;;;;;;5071650;28;20848;-71
2022/08/18 13:21:12;;;;;;;10.37;9.30;;;26.80;79.00;;;;;;5083703;28;20333;-69
2022/08/18 13:23:39;;;;;;;11.63;9.27;;;26.70;78.50;;;;;;5076204;28;20606;-71
2022/08/18 13:26:08;;;;;;;11.40;9.17;;;26.70;78.50;;;;;;5051772;28;20450;-72
2022/08/18 13:28:35;;;;;;;10.20;9.30;;;26.70;78.80;;;;;;5074031;28;20951;-71